HLLM

Mitiga Airport

Tripoli, Libya
TAF HLLM 210500Z 2106/2206 VRB02KT 8000 FEW025 BECMG 2109/2111 04010KT
Issued Valid From Valid To
Jun-21 @ 05:00 UTC
(5 hours ago)
Jun-21 @ 06:00 UTC
(4 hours ago)
Jun-22 @ 06:00 UTC
(in 20 hours)
Expired Click to View Jun-21 @ 06:00 to Jun-21 @ 09:00
TAF HLLM 210500Z 2106/2206 VRB02KT 8000 FEW025
Wind Visibility Clouds
Variable at 2 knots 7,998 meters
  • Few at 2,500' AGL
Becoming Jun-21 @ 09:00 to Jun-22 @ 06:00
BECMG 2109/2111 04010KT
Wind Visibility Clouds
40° at 10 knots 7,998 meters
  • Few at 2,500' AGL
TAF HLLM 210500Z 2106/2206 VRB02KT 8000 FEW025 BECMG 2109/2111 04010KT
Issued Jun-21 @ 05:00 UTC
(5 hours ago)
Valid From Jun-21 @ 06:00 UTC
(4 hours ago)
Valid To Jun-22 @ 06:00 UTC
(in 20 hours)
Jun-21 @ 06:00 - Jun-21 @ 09:00
Wind Visibility
Variable at 2 knots 7,998 meters
Clouds
  • Few at 2,500' AGL
Becoming Jun-21 @ 09:00 - Jun-22 @ 06:00
Wind Visibility
40° at 10 knots 7,998 meters
Clouds
  • Few at 2,500' AGL